sensor_id;sensor_type;location;lat;lon;timestamp;temperature;humidity
23591;DHT22;11973;52.098;7.582;2023-07-30T05:15:53;16.00;91.10
23591;DHT22;11973;52.098;7.582;2023-07-30T05:18:19;16.00;91.20
23591;DHT22;11973;52.098;7.582;2023-07-30T05:20:47;16.10;91.20
23591;DHT22;11973;52.098;7.582;2023-07-30T05:23:14;16.10;91.30
23591;DHT22;11973;52.098;7.582;2023-07-30T05:25:39;16.10;91.30
23591;DHT22;11973;52.098;7.582;2023-07-30T05:28:05;16.20;91.60
23591;DHT22;11973;52.098;7.582;2023-07-30T05:30:31;16.20;91.30
23591;DHT22;11973;52.098;7.582;2023-07-30T05:32:56;16.30;91.30
23591;DHT22;11973;52.098;7.582;2023-07-30T05:35:22;16.40;91.30
23591;DHT22;11973;52.098;7.582;2023-07-30T05:37:48;16.50;91.40
23591;DHT22;11973;52.098;7.582;2023-07-30T05:40:13;16.50;91.40
23591;DHT22;11973;52.098;7.582;2023-07-30T05:42:39;16.60;91.40
23591;DHT22;11973;52.098;7.582;2023-07-30T05:45:05;16.70;91.40
23591;DHT22;11973;52.098;7.582;2023-07-30T05:47:31;16.80;91.40
23591;DHT22;11973;52.098;7.582;2023-07-30T05:49:58;16.80;91.40
23591;DHT22;11973;52.098;7.582;2023-07-30T05:52:23;16.90;91.30
23591;DHT22;11973;52.098;7.582;2023-07-30T05:54:49;16.90;91.30
23591;DHT22;11973;52.098;7.582;2023-07-30T05:57:15;16.90;91.30
23591;DHT22;11973;52.098;7.582;2023-07-30T05:59:41;17.00;91.30
23591;DHT22;11973;52.098;7.582;2023-07-30T06:02:07;17.00;91.30
23591;DHT22;11973;52.098;7.582;2023-07-30T06:04:33;17.10;91.40
23591;DHT22;11973;52.098;7.582;2023-07-30T06:07:03;17.10;91.40
23591;DHT22;11973;52.098;7.582;2023-07-30T06:09:28;17.10;91.30
23591;DHT22;11973;52.098;7.582;2023-07-30T06:11:56;17.20;91.40
23591;DHT22;11973;52.098;7.582;2023-07-30T06:14:23;17.30;91.40
23591;DHT22;11973;52.098;7.582;2023-07-30T06:16:49;17.20;91.40
23591;DHT22;11973;52.098;7.582;2023-07-30T06:19:15;17.30;91.40
23591;DHT22;11973;52.098;7.582;2023-07-30T06:21:40;17.20;91.30
23591;DHT22;11973;52.098;7.582;2023-07-30T06:24:06;17.20;91.30
23591;DHT22;11973;52.098;7.582;2023-07-30T06:26:32;17.30;91.50
23591;DHT22;11973;52.098;7.582;2023-07-30T06:28:58;17.40;91.50
23591;DHT22;11973;52.098;7.582;2023-07-30T06:31:24;17.40;91.50
23591;DHT22;11973;52.098;7.582;2023-07-30T06:33:49;17.50;91.50
23591;DHT22;11973;52.098;7.582;2023-07-30T06:36:15;17.60;91.50
23591;DHT22;11973;52.098;7.582;2023-07-30T06:38:41;17.70;91.50
23591;DHT22;11973;52.098;7.582;2023-07-30T06:41:07;17.70;91.50
23591;DHT22;11973;52.098;7.582;2023-07-30T06:43:32;17.80;91.50
23591;DHT22;11973;52.098;7.582;2023-07-30T06:45:58;17.80;91.80
23591;DHT22;11973;52.098;7.582;2023-07-30T06:48:24;17.80;91.40
23591;DHT22;11973;52.098;7.582;2023-07-30T06:50:49;17.80;91.40
23591;DHT22;11973;52.098;7.582;2023-07-30T06:53:15;17.80;91.40
23591;DHT22;11973;52.098;7.582;2023-07-30T06:55:41;17.80;91.50
23591;DHT22;11973;52.098;7.582;2023-07-30T06:58:07;17.80;91.50
23591;DHT22;11973;52.098;7.582;2023-07-30T07:00:32;17.90;91.50
23591;DHT22;11973;52.098;7.582;2023-07-30T07:02:58;18.00;91.50
23591;DHT22;11973;52.098;7.582;2023-07-30T07:05:24;18.10;91.50
23591;DHT22;11973;52.098;7.582;2023-07-30T07:07:49;18.10;91.50
23591;DHT22;11973;52.098;7.582;2023-07-30T07:10:15;18.20;91.50
23591;DHT22;11973;52.098;7.582;2023-07-30T07:12:41;18.20;91.50
23591;DHT22;11973;52.098;7.582;2023-07-30T07:15:07;18.30;91.50
23591;DHT22;11973;52.098;7.582;2023-07-30T07:17:33;18.40;91.50
23591;DHT22;11973;52.098;7.582;2023-07-30T07:19:59;18.40;91.50
23591;DHT22;11973;52.098;7.582;2023-07-30T07:22:25;18.50;91.50
23591;DHT22;11973;52.098;7.582;2023-07-30T07:24:53;18.60;91.50
23591;DHT22;11973;52.098;7.582;2023-07-30T07:27:19;18.60;91.40
23591;DHT22;11973;52.098;7.582;2023-07-30T07:29:45;18.70;91.40
23591;DHT22;11973;52.098;7.582;2023-07-30T07:32:11;18.60;91.30
23591;DHT22;11973;52.098;7.582;2023-07-30T07:34:36;18.70;91.30
23591;DHT22;11973;52.098;7.582;2023-07-30T07:37:02;18.60;91.20
23591;DHT22;11973;52.098;7.582;2023-07-30T07:39:28;18.60;91.20
23591;DHT22;11973;52.098;7.582;2023-07-30T07:41:55;18.60;91.20
23591;DHT22;11973;52.098;7.582;2023-07-30T07:44:21;18.60;91.20
23591;DHT22;11973;52.098;7.582;2023-07-30T07:46:48;18.70;91.30
23591;DHT22;11973;52.098;7.582;2023-07-30T07:49:13;18.80;91.30
23591;DHT22;11973;52.098;7.582;2023-07-30T07:51:39;18.90;91.30
23591;DHT22;11973;52.098;7.582;2023-07-30T07:54:05;19.00;91.40
23591;DHT22;11973;52.098;7.582;2023-07-30T07:56:31;19.20;91.70
23591;DHT22;11973;52.098;7.582;2023-07-30T07:58:57;19.30;91.30
23591;DHT22;11973;52.098;7.582;2023-07-30T08:01:23;19.40;91.20
23591;DHT22;11973;52.098;7.582;2023-07-30T08:03:49;19.40;91.10
23591;DHT22;11973;52.098;7.582;2023-07-30T08:06:15;19.40;91.00
23591;DHT22;11973;52.098;7.582;2023-07-30T08:08:40;19.30;90.90
23591;DHT22;11973;52.098;7.582;2023-07-30T08:11:07;19.30;91.00
23591;DHT22;11973;52.098;7.582;2023-07-30T08:13:33;19.20;90.90
23591;DHT22;11973;52.098;7.582;2023-07-30T08:15:59;19.20;90.90
23591;DHT22;11973;52.098;7.582;2023-07-30T08:18:26;19.20;90.90
23591;DHT22;11973;52.098;7.582;2023-07-30T08:20:51;19.20;91.20
23591;DHT22;11973;52.098;7.582;2023-07-30T08:23:17;19.20;90.80
23591;DHT22;11973;52.098;7.582;2023-07-30T08:25:43;19.30;90.80
23591;DHT22;11973;52.098;7.582;2023-07-30T08:28:08;19.40;90.90
23591;DHT22;11973;52.098;7.582;2023-07-30T08:30:34;19.40;90.80
23591;DHT22;11973;52.098;7.582;2023-07-30T08:33:00;19.40;90.80
23591;DHT22;11973;52.098;7.582;2023-07-30T08:35:26;19.40;90.70
23591;DHT22;11973;52.098;7.582;2023-07-30T08:37:55;19.40;90.70
23591;DHT22;11973;52.098;7.582;2023-07-30T08:40:21;19.40;91.00
23591;DHT22;11973;52.098;7.582;2023-07-30T08:42:52;19.50;90.70
23591;DHT22;11973;52.098;7.582;2023-07-30T08:45:19;19.60;90.70
23591;DHT22;11973;52.098;7.582;2023-07-30T08:47:45;19.60;90.60
23591;DHT22;11973;52.098;7.582;2023-07-30T08:50:12;19.60;90.60
23591;DHT22;11973;52.098;7.582;2023-07-30T08:52:38;19.60;90.50
23591;DHT22;11973;52.098;7.582;2023-07-30T08:55:05;19.60;90.50
23591;DHT22;11973;52.098;7.582;2023-07-30T08:57:32;19.60;90.50
23591;DHT22;11973;52.098;7.582;2023-07-30T09:00:05;19.60;90.40
23591;DHT22;11973;52.098;7.582;2023-07-30T09:02:34;19.50;90.30
23591;DHT22;11973;52.098;7.582;2023-07-30T09:05:03;19.50;90.30
23591;DHT22;11973;52.098;7.582;2023-07-30T09:07:29;19.50;90.40
23591;DHT22;11973;52.098;7.582;2023-07-30T09:09:54;19.50;90.40
23591;DHT22;11973;52.098;7.582;2023-07-30T09:12:29;19.60;90.40
23591;DHT22;11973;52.098;7.582;2023-07-30T09:14:54;19.70;90.40
23591;DHT22;11973;52.098;7.582;2023-07-30T09:17:20;19.70;90.40
23591;DHT22;11973;52.098;7.582;2023-07-30T09:19:46;19.90;90.40
23591;DHT22;11973;52.098;7.582;2023-07-30T09:22:13;20.10;90.40
23591;DHT22;11973;52.098;7.582;2023-07-30T09:24:44;20.30;90.30
23591;DHT22;11973;52.098;7.582;2023-07-30T09:27:10;20.50;90.20
23591;DHT22;11973;52.098;7.582;2023-07-30T09:29:36;20.60;90.50
23591;DHT22;11973;52.098;7.582;2023-07-30T09:32:02;20.60;90.10
23591;DHT22;11973;52.098;7.582;2023-07-30T09:34:28;20.60;90.00
23591;DHT22;11973;52.098;7.582;2023-07-30T09:36:55;20.60;89.70
23591;DHT22;11973;52.098;7.582;2023-07-30T09:39:24;20.60;89.60
23591;DHT22;11973;52.098;7.582;2023-07-30T09:41:52;20.70;89.40
23591;DHT22;11973;52.098;7.582;2023-07-30T09:44:24;20.70;89.20
23591;DHT22;11973;52.098;7.582;2023-07-30T09:46:50;20.80;89.30
23591;DHT22;11973;52.098;7.582;2023-07-30T09:49:17;20.90;89.70
23591;DHT22;11973;52.098;7.582;2023-07-30T09:51:44;21.00;88.90
23591;DHT22;11973;52.098;7.582;2023-07-30T09:54:12;21.10;89.50
23591;DHT22;11973;52.098;7.582;2023-07-30T09:56:39;21.30;88.60
23591;DHT22;11973;52.098;7.582;2023-07-30T09:59:08;21.50;88.40
23591;DHT22;11973;52.098;7.582;2023-07-30T10:01:41;21.70;88.00
23591;DHT22;11973;52.098;7.582;2023-07-30T10:04:09;21.90;87.50
23591;DHT22;11973;52.098;7.582;2023-07-30T10:06:40;22.00;86.70
23591;DHT22;11973;52.098;7.582;2023-07-30T10:09:07;22.00;86.30
23591;DHT22;11973;52.098;7.582;2023-07-30T10:11:35;22.10;86.10
23591;DHT22;11973;52.098;7.582;2023-07-30T10:14:02;22.20;86.10
23591;DHT22;11973;52.098;7.582;2023-07-30T10:16:29;22.30;86.10
23591;DHT22;11973;52.098;7.582;2023-07-30T10:18:58;22.20;85.60
23591;DHT22;11973;52.098;7.582;2023-07-30T10:21:26;22.20;85.30
23591;DHT22;11973;52.098;7.582;2023-07-30T10:24:03;22.20;84.90
23591;DHT22;11973;52.098;7.582;2023-07-30T10:26:33;22.10;84.50
23591;DHT22;11973;52.098;7.582;2023-07-30T10:31:43;22.00;83.40
23591;DHT22;11973;52.098;7.582;2023-07-30T10:34:10;22.10;83.50
23591;DHT22;11973;52.098;7.582;2023-07-30T10:36:56;22.20;83.30
23591;DHT22;11973;52.098;7.582;2023-07-30T10:39:28;22.30;83.00
23591;DHT22;11973;52.098;7.582;2023-07-30T10:41:56;22.40;83.10
23591;DHT22;11973;52.098;7.582;2023-07-30T10:44:24;22.60;82.70
23591;DHT22;11973;52.098;7.582;2023-07-30T10:46:55;22.70;82.10
23591;DHT22;11973;52.098;7.582;2023-07-30T10:49:21;22.80;81.70
23591;DHT22;11973;52.098;7.582;2023-07-30T10:51:46;22.90;81.80
23591;DHT22;11973;52.098;7.582;2023-07-30T10:54:12;23.00;80.70
23591;DHT22;11973;52.098;7.582;2023-07-30T10:56:38;23.10;80.30
23591;DHT22;11973;52.098;7.582;2023-07-30T10:59:06;23.00;80.00
23591;DHT22;11973;52.098;7.582;2023-07-30T11:01:37;22.90;79.90
23591;DHT22;11973;52.098;7.582;2023-07-30T11:04:13;22.80;79.90
23591;DHT22;11973;52.098;7.582;2023-07-30T11:06:39;22.80;79.80
23591;DHT22;11973;52.098;7.582;2023-07-30T11:09:05;22.80;79.50
23591;DHT22;11973;52.098;7.582;2023-07-30T11:11:31;22.90;79.30
23591;DHT22;11973;52.098;7.582;2023-07-30T11:13:57;23.00;79.10
23591;DHT22;11973;52.098;7.582;2023-07-30T11:16:24;23.00;79.30
23591;DHT22;11973;52.098;7.582;2023-07-30T11:18:50;23.10;77.90
23591;DHT22;11973;52.098;7.582;2023-07-30T11:21:17;23.10;77.30
23591;DHT22;11973;52.098;7.582;2023-07-30T11:23:44;23.10;76.90
23591;DHT22;11973;52.098;7.582;2023-07-30T11:26:20;23.00;76.40
23591;DHT22;11973;52.098;7.582;2023-07-30T11:28:46;22.90;75.90
23591;DHT22;11973;52.098;7.582;2023-07-30T11:31:14;22.80;76.20
23591;DHT22;11973;52.098;7.582;2023-07-30T11:33:45;22.70;76.20
23591;DHT22;11973;52.098;7.582;2023-07-30T11:36:16;22.80;76.20
23591;DHT22;11973;52.098;7.582;2023-07-30T11:38:43;23.10;76.20
23591;DHT22;11973;52.098;7.582;2023-07-30T11:41:10;23.40;76.20
23591;DHT22;11973;52.098;7.582;2023-07-30T11:43:38;23.60;75.80
23591;DHT22;11973;52.098;7.582;2023-07-30T11:46:17;23.80;75.30
23591;DHT22;11973;52.098;7.582;2023-07-30T11:48:48;23.90;74.90
23591;DHT22;11973;52.098;7.582;2023-07-30T11:51:28;23.90;74.40
23591;DHT22;11973;52.098;7.582;2023-07-30T11:53:55;23.80;73.60
23591;DHT22;11973;52.098;7.582;2023-07-30T11:56:27;23.80;73.80
23591;DHT22;11973;52.098;7.582;2023-07-30T11:58:57;23.80;73.80
23591;DHT22;11973;52.098;7.582;2023-07-30T12:01:25;23.80;73.10
23591;DHT22;11973;52.098;7.582;2023-07-30T12:03:54;23.80;73.10
23591;DHT22;11973;52.098;7.582;2023-07-30T12:06:20;23.70;72.80
23591;DHT22;11973;52.098;7.582;2023-07-30T12:08:49;23.60;72.60
23591;DHT22;11973;52.098;7.582;2023-07-30T12:11:17;23.30;72.20
23591;DHT22;11973;52.098;7.582;2023-07-30T12:13:45;23.00;71.70
23591;DHT22;11973;52.098;7.582;2023-07-30T12:16:12;22.70;71.40
23591;DHT22;11973;52.098;7.582;2023-07-30T12:18:39;22.50;72.10
23591;DHT22;11973;52.098;7.582;2023-07-30T12:21:08;22.30;71.50
23591;DHT22;11973;52.098;7.582;2023-07-30T12:23:37;22.20;71.90
23591;DHT22;11973;52.098;7.582;2023-07-30T12:26:03;22.00;72.00
23591;DHT22;11973;52.098;7.582;2023-07-30T12:28:33;21.90;72.20
23591;DHT22;11973;52.098;7.582;2023-07-30T12:31:00;21.90;72.50
23591;DHT22;11973;52.098;7.582;2023-07-30T12:33:25;21.90;72.70
23591;DHT22;11973;52.098;7.582;2023-07-30T12:35:51;22.00;72.90
23591;DHT22;11973;52.098;7.582;2023-07-30T12:38:17;22.10;73.20
23591;DHT22;11973;52.098;7.582;2023-07-30T12:40:43;22.20;73.10
23591;DHT22;11973;52.098;7.582;2023-07-30T12:43:08;22.30;73.00
23591;DHT22;11973;52.098;7.582;2023-07-30T12:45:34;22.30;72.80
23591;DHT22;11973;52.098;7.582;2023-07-30T12:48:01;22.40;72.90
23591;DHT22;11973;52.098;7.582;2023-07-30T12:50:26;22.50;72.40
23591;DHT22;11973;52.098;7.582;2023-07-30T12:52:52;22.50;72.00
23591;DHT22;11973;52.098;7.582;2023-07-30T12:55:18;22.50;71.70
23591;DHT22;11973;52.098;7.582;2023-07-30T12:57:44;22.60;71.20
23591;DHT22;11973;52.098;7.582;2023-07-30T13:00:10;22.60;71.50
23591;DHT22;11973;52.098;7.582;2023-07-30T13:02:36;22.70;70.50
23591;DHT22;11973;52.098;7.582;2023-07-30T13:05:02;22.80;70.50
23591;DHT22;11973;52.098;7.582;2023-07-30T13:07:29;22.90;70.20
23591;DHT22;11973;52.098;7.582;2023-07-30T13:10:07;23.00;69.90
23591;DHT22;11973;52.098;7.582;2023-07-30T13:12:33;23.10;69.40
23591;DHT22;11973;52.098;7.582;2023-07-30T13:14:59;23.10;69.20
23591;DHT22;11973;52.098;7.582;2023-07-30T13:17:25;23.10;69.00
23591;DHT22;11973;52.098;7.582;2023-07-30T13:19:51;23.10;68.80
23591;DHT22;11973;52.098;7.582;2023-07-30T13:22:16;23.10;68.50
23591;DHT22;11973;52.098;7.582;2023-07-30T13:24:42;23.10;68.40
23591;DHT22;11973;52.098;7.582;2023-07-30T13:27:08;23.10;68.40
23591;DHT22;11973;52.098;7.582;2023-07-30T13:29:34;23.20;68.50
23591;DHT22;11973;52.098;7.582;2023-07-30T13:31:59;23.30;68.50
23591;DHT22;11973;52.098;7.582;2023-07-30T13:34:25;23.30;68.40
23591;DHT22;11973;52.098;7.582;2023-07-30T13:36:51;23.40;68.30
23591;DHT22;11973;52.098;7.582;2023-07-30T13:39:16;23.50;68.20
23591;DHT22;11973;52.098;7.582;2023-07-30T13:41:42;23.70;68.00
23591;DHT22;11973;52.098;7.582;2023-07-30T13:44:08;23.80;67.50
23591;DHT22;11973;52.098;7.582;2023-07-30T13:46:39;24.00;67.50
23591;DHT22;11973;52.098;7.582;2023-07-30T13:49:06;24.20;67.30
23591;DHT22;11973;52.098;7.582;2023-07-30T13:51:32;24.30;66.70
23591;DHT22;11973;52.098;7.582;2023-07-30T13:53:59;24.50;66.60
23591;DHT22;11973;52.098;7.582;2023-07-30T13:56:26;24.70;66.50
23591;DHT22;11973;52.098;7.582;2023-07-30T13:58:51;24.70;65.90
23591;DHT22;11973;52.098;7.582;2023-07-30T14:01:17;24.80;65.50
23591;DHT22;11973;52.098;7.582;2023-07-30T14:03:43;24.90;65.10
23591;DHT22;11973;52.098;7.582;2023-07-30T14:06:09;24.90;65.10
23591;DHT22;11973;52.098;7.582;2023-07-30T14:08:35;24.90;65.20
23591;DHT22;11973;52.098;7.582;2023-07-30T14:11:01;25.00;65.40
23591;DHT22;11973;52.098;7.582;2023-07-30T14:13:27;25.20;66.10
23591;DHT22;11973;52.098;7.582;2023-07-30T14:15:52;25.60;66.20
23591;DHT22;11973;52.098;7.582;2023-07-30T14:18:18;26.00;66.30
23591;DHT22;11973;52.098;7.582;2023-07-30T14:20:44;26.50;66.40
23591;DHT22;11973;52.098;7.582;2023-07-30T14:23:10;27.00;66.20
23591;DHT22;11973;52.098;7.582;2023-07-30T14:25:37;27.40;65.20
23591;DHT22;11973;52.098;7.582;2023-07-30T14:28:03;27.40;63.70
23591;DHT22;11973;52.098;7.582;2023-07-30T14:30:29;27.60;63.70
23591;DHT22;11973;52.098;7.582;2023-07-30T14:32:55;27.80;63.60
23591;DHT22;11973;52.098;7.582;2023-07-30T14:35:20;28.20;64.00
23591;DHT22;11973;52.098;7.582;2023-07-30T14:37:46;28.50;62.70
23591;DHT22;11973;52.098;7.582;2023-07-30T14:40:12;28.90;62.50
23591;DHT22;11973;52.098;7.582;2023-07-30T14:42:38;29.40;61.70
23591;DHT22;11973;52.098;7.582;2023-07-30T14:45:06;29.60;60.00
23591;DHT22;11973;52.098;7.582;2023-07-30T14:47:31;29.30;58.50
23591;DHT22;11973;52.098;7.582;2023-07-30T14:49:58;29.10;57.70
23591;DHT22;11973;52.098;7.582;2023-07-30T14:52:24;29.30;58.00
23591;DHT22;11973;52.098;7.582;2023-07-30T14:54:50;29.60;57.90
23591;DHT22;11973;52.098;7.582;2023-07-30T14:57:16;30.10;57.90
23591;DHT22;11973;52.098;7.582;2023-07-30T14:59:42;30.50;57.40
23591;DHT22;11973;52.098;7.582;2023-07-30T15:02:08;31.00;56.70
23591;DHT22;11973;52.098;7.582;2023-07-30T15:04:34;31.20;55.10
23591;DHT22;11973;52.098;7.582;2023-07-30T15:06:59;31.10;54.10
23591;DHT22;11973;52.098;7.582;2023-07-30T15:09:25;30.90;54.30
23591;DHT22;11973;52.098;7.582;2023-07-30T15:11:51;30.70;53.20
23591;DHT22;11973;52.098;7.582;2023-07-30T15:14:17;30.40;52.90
23591;DHT22;11973;52.098;7.582;2023-07-30T15:16:42;30.40;53.70
23591;DHT22;11973;52.098;7.582;2023-07-30T15:19:08;30.50;53.40
23591;DHT22;11973;52.098;7.582;2023-07-30T15:21:34;30.10;52.50
23591;DHT22;11973;52.098;7.582;2023-07-30T15:24:03;29.50;51.60
23591;DHT22;11973;52.098;7.582;2023-07-30T15:26:29;28.70;51.30
23591;DHT22;11973;52.098;7.582;2023-07-30T15:28:54;28.10;51.40
23591;DHT22;11973;52.098;7.582;2023-07-30T15:31:20;28.10;52.20
23591;DHT22;11973;52.098;7.582;2023-07-30T15:33:46;28.60;53.20
23591;DHT22;11973;52.098;7.582;2023-07-30T15:36:12;29.40;53.10
23591;DHT22;11973;52.098;7.582;2023-07-30T15:38:37;29.70;51.40
23591;DHT22;11973;52.098;7.582;2023-07-30T15:41:03;29.70;51.00
23591;DHT22;11973;52.098;7.582;2023-07-30T15:43:29;29.80;50.70
23591;DHT22;11973;52.098;7.582;2023-07-30T15:45:54;30.20;50.80
23591;DHT22;11973;52.098;7.582;2023-07-30T15:48:28;30.90;50.80
23591;DHT22;11973;52.098;7.582;2023-07-30T15:50:53;31.30;49.80
23591;DHT22;11973;52.098;7.582;2023-07-30T15:53:19;31.60;49.10
23591;DHT22;11973;52.098;7.582;2023-07-30T15:55:45;31.30;47.90
23591;DHT22;11973;52.098;7.582;2023-07-30T15:58:10;31.30;47.90
23591;DHT22;11973;52.098;7.582;2023-07-30T16:00:36;31.60;47.90
23591;DHT22;11973;52.098;7.582;2023-07-30T16:03:02;31.50;47.10
23591;DHT22;11973;52.098;7.582;2023-07-30T16:05:31;31.00;46.60
23591;DHT22;11973;52.098;7.582;2023-07-30T16:07:56;30.40;46.70
23591;DHT22;11973;52.098;7.582;2023-07-30T16:10:22;30.20;46.80
23591;DHT22;11973;52.098;7.582;2023-07-30T16:12:48;29.70;46.40
23591;DHT22;11973;52.098;7.582;2023-07-30T16:15:13;29.20;46.40
23591;DHT22;11973;52.098;7.582;2023-07-30T16:17:39;28.60;46.40
23591;DHT22;11973;52.098;7.582;2023-07-30T16:20:05;27.90;46.80
23591;DHT22;11973;52.098;7.582;2023-07-30T16:22:31;27.50;47.60
23591;DHT22;11973;52.098;7.582;2023-07-30T16:24:57;27.50;48.40
23591;DHT22;11973;52.098;7.582;2023-07-30T16:27:23;27.50;48.50
23591;DHT22;11973;52.098;7.582;2023-07-30T16:29:49;27.30;48.70
23591;DHT22;11973;52.098;7.582;2023-07-30T16:32:15;27.30;49.10
23591;DHT22;11973;52.098;7.582;2023-07-30T16:34:41;27.50;49.40
23591;DHT22;11973;52.098;7.582;2023-07-30T16:37:06;27.50;49.30
23591;DHT22;11973;52.098;7.582;2023-07-30T16:39:32;27.20;49.20
23591;DHT22;11973;52.098;7.582;2023-07-30T16:41:58;26.80;49.50
23591;DHT22;11973;52.098;7.582;2023-07-30T16:44:24;26.40;49.80
23591;DHT22;11973;52.098;7.582;2023-07-30T16:46:50;26.00;50.10
23591;DHT22;11973;52.098;7.582;2023-07-30T16:49:15;25.60;50.40
23591;DHT22;11973;52.098;7.582;2023-07-30T16:51:41;25.40;51.00
23591;DHT22;11973;52.098;7.582;2023-07-30T16:54:07;25.30;51.50
23591;DHT22;11973;52.098;7.582;2023-07-30T16:56:35;25.10;51.70
23591;DHT22;11973;52.098;7.582;2023-07-30T16:59:01;25.10;51.90
23591;DHT22;11973;52.098;7.582;2023-07-30T17:01:27;24.90;52.00
23591;DHT22;11973;52.098;7.582;2023-07-30T17:03:53;24.70;52.20
23591;DHT22;11973;52.098;7.582;2023-07-30T17:06:19;24.50;52.40
23591;DHT22;11973;52.098;7.582;2023-07-30T17:08:45;24.40;52.70
23591;DHT22;11973;52.098;7.582;2023-07-30T17:11:10;24.30;53.00
23591;DHT22;11973;52.098;7.582;2023-07-30T17:13:36;24.30;53.80
23591;DHT22;11973;52.098;7.582;2023-07-30T17:16:08;24.30;53.40
23591;DHT22;11973;52.098;7.582;2023-07-30T17:18:35;24.20;53.60
23591;DHT22;11973;52.098;7.582;2023-07-30T17:21:01;24.00;53.60
23591;DHT22;11973;52.098;7.582;2023-07-30T17:23:27;23.90;53.80
23591;DHT22;11973;52.098;7.582;2023-07-30T17:25:57;23.80;54.00
23591;DHT22;11973;52.098;7.582;2023-07-30T17:28:23;23.60;54.40
23591;DHT22;11973;52.098;7.582;2023-07-30T17:30:49;23.40;54.50
23591;DHT22;11973;52.098;7.582;2023-07-30T17:33:15;23.40;55.40
23591;DHT22;11973;52.098;7.582;2023-07-30T17:35:41;23.30;55.00
23591;DHT22;11973;52.098;7.582;2023-07-30T17:38:07;23.20;55.30
23591;DHT22;11973;52.098;7.582;2023-07-30T17:40:33;23.10;55.40
23591;DHT22;11973;52.098;7.582;2023-07-30T17:43:01;23.00;55.50
23591;DHT22;11973;52.098;7.582;2023-07-30T17:45:27;23.00;55.70
23591;DHT22;11973;52.098;7.582;2023-07-30T17:47:53;22.90;55.80
23591;DHT22;11973;52.098;7.582;2023-07-30T17:50:19;22.90;56.00
23591;DHT22;11973;52.098;7.582;2023-07-30T17:52:44;22.80;56.10
23591;DHT22;11973;52.098;7.582;2023-07-30T17:55:10;22.70;56.20
23591;DHT22;11973;52.098;7.582;2023-07-30T17:57:37;22.60;56.30
23591;DHT22;11973;52.098;7.582;2023-07-30T18:00:06;22.60;56.40
23591;DHT22;11973;52.098;7.582;2023-07-30T18:02:37;22.60;56.50
23591;DHT22;11973;52.098;7.582;2023-07-30T18:05:03;22.60;56.60
23591;DHT22;11973;52.098;7.582;2023-07-30T18:07:29;22.50;56.70
23591;DHT22;11973;52.098;7.582;2023-07-30T18:09:55;22.50;56.90
23591;DHT22;11973;52.098;7.582;2023-07-30T18:12:20;22.40;56.90
23591;DHT22;11973;52.098;7.582;2023-07-30T18:14:47;22.30;57.10
23591;DHT22;11973;52.098;7.582;2023-07-30T18:17:13;22.20;57.20
23591;DHT22;11973;52.098;7.582;2023-07-30T18:19:38;22.10;57.40
23591;DHT22;11973;52.098;7.582;2023-07-30T18:22:04;22.10;57.60
23591;DHT22;11973;52.098;7.582;2023-07-30T18:24:30;22.00;57.70
23591;DHT22;11973;52.098;7.582;2023-07-30T18:26:56;21.90;57.80
23591;DHT22;11973;52.098;7.582;2023-07-30T18:29:22;21.80;58.00
23591;DHT22;11973;52.098;7.582;2023-07-30T18:31:47;21.80;58.10
23591;DHT22;11973;52.098;7.582;2023-07-30T18:34:13;21.70;58.20
23591;DHT22;11973;52.098;7.582;2023-07-30T18:36:39;21.60;58.30
23591;DHT22;11973;52.098;7.582;2023-07-30T18:39:04;21.60;58.50
23591;DHT22;11973;52.098;7.582;2023-07-30T18:41:30;21.50;58.60
23591;DHT22;11973;52.098;7.582;2023-07-30T18:43:56;21.50;58.80
23591;DHT22;11973;52.098;7.582;2023-07-30T18:46:22;21.40;58.90
23591;DHT22;11973;52.098;7.582;2023-07-30T18:48:47;21.40;59.00
23591;DHT22;11973;52.098;7.582;2023-07-30T18:51:13;21.30;59.20
23591;DHT22;11973;52.098;7.582;2023-07-30T18:53:39;21.30;59.40
23591;DHT22;11973;52.098;7.582;2023-07-30T18:56:05;21.20;59.40
23591;DHT22;11973;52.098;7.582;2023-07-30T18:58:31;21.20;59.60
23591;DHT22;11973;52.098;7.582;2023-07-30T19:00:57;21.20;59.80
23591;DHT22;11973;52.098;7.582;2023-07-30T19:03:22;21.20;59.90
23591;DHT22;11973;52.098;7.582;2023-07-30T19:05:49;21.10;60.00
23591;DHT22;11973;52.098;7.582;2023-07-30T19:08:15;21.10;60.20
23591;DHT22;11973;52.098;7.582;2023-07-30T19:10:41;21.10;60.40
23591;DHT22;11973;52.098;7.582;2023-07-30T19:13:07;21.00;60.50
23591;DHT22;11973;52.098;7.582;2023-07-30T19:15:32;21.00;60.60
23591;DHT22;11973;52.098;7.582;2023-07-30T19:17:58;21.00;60.80
23591;DHT22;11973;52.098;7.582;2023-07-30T19:20:24;21.00;61.00
23591;DHT22;11973;52.098;7.582;2023-07-30T19:22:49;20.90;61.10
23591;DHT22;11973;52.098;7.582;2023-07-30T19:25:15;20.90;61.30
23591;DHT22;11973;52.098;7.582;2023-07-30T19:27:41;20.90;61.40
23591;DHT22;11973;52.098;7.582;2023-07-30T19:30:07;20.90;61.60
23591;DHT22;11973;52.098;7.582;2023-07-30T19:32:33;20.90;61.80
23591;DHT22;11973;52.098;7.582;2023-07-30T19:34:59;20.80;61.90
23591;DHT22;11973;52.098;7.582;2023-07-30T19:37:24;20.80;62.00
23591;DHT22;11973;52.098;7.582;2023-07-30T19:39:50;20.80;62.20
23591;DHT22;11973;52.098;7.582;2023-07-30T19:42:16;20.70;62.20
23591;DHT22;11973;52.098;7.582;2023-07-30T19:44:41;20.70;62.40
23591;DHT22;11973;52.098;7.582;2023-07-30T19:47:07;20.60;62.50
23591;DHT22;11973;52.098;7.582;2023-07-30T19:49:32;20.70;62.90
23591;DHT22;11973;52.098;7.582;2023-07-30T19:51:58;20.60;63.10
23591;DHT22;11973;52.098;7.582;2023-07-30T19:54:24;20.50;63.40
23591;DHT22;11973;52.098;7.582;2023-07-30T19:56:49;20.50;63.70
23591;DHT22;11973;52.098;7.582;2023-07-30T19:59:16;20.40;63.90
23591;DHT22;11973;52.098;7.582;2023-07-30T20:01:41;20.40;64.30
23591;DHT22;11973;52.098;7.582;2023-07-30T20:04:07;20.30;64.80
23591;DHT22;11973;52.098;7.582;2023-07-30T20:06:33;20.20;65.30
23591;DHT22;11973;52.098;7.582;2023-07-30T20:08:58;20.00;66.60
23591;DHT22;11973;52.098;7.582;2023-07-30T20:11:24;19.90;66.40
23591;DHT22;11973;52.098;7.582;2023-07-30T20:13:50;19.80;67.00
23591;DHT22;11973;52.098;7.582;2023-07-30T20:16:15;19.70;67.30
23591;DHT22;11973;52.098;7.582;2023-07-30T20:18:41;19.50;67.90
23591;DHT22;11973;52.098;7.582;2023-07-30T20:21:08;19.40;68.40
23591;DHT22;11973;52.098;7.582;2023-07-30T20:23:34;19.30;69.10
23591;DHT22;11973;52.098;7.582;2023-07-30T20:26:00;19.20;69.50
23591;DHT22;11973;52.098;7.582;2023-07-30T20:28:25;19.10;70.00
23591;DHT22;11973;52.098;7.582;2023-07-30T20:30:51;19.00;70.40
23591;DHT22;11973;52.098;7.582;2023-07-30T20:33:17;19.00;71.00
23591;DHT22;11973;52.098;7.582;2023-07-30T20:35:43;18.90;72.20
23591;DHT22;11973;52.098;7.582;2023-07-30T20:38:08;18.90;72.00
23591;DHT22;11973;52.098;7.582;2023-07-30T20:40:34;18.80;72.10
23591;DHT22;11973;52.098;7.582;2023-07-30T20:43:00;18.80;72.60